To NAV CANADA Home Page Login to a new session Search on AWWS site Feedback and Comments Disclaimer Vers la page française équivalente Tips FAQ What's new on the site To the Forecasts and Observations / NOTAM section To "File a Flight Plan" website Publications and other links Update of the User's profile FIC Telephone Numbers My Weather Data Folder Route Weather Data Regional Weather Data Local Weather Data To the Forecasts and Observations / NOTAM section
Request Generated 02/14/2016 at 14:26:36 UTC . Weather information available at that time is displayed.

METAR/TAF

DAWSON CITY/YT    

LWIS CYDA 141400Z AUTO VRB02KT M16/M17 A2959=
LWIS CYDA 141300Z AUTO 00000KT M16/M18 A2959=
LWIS CYDA 141200Z AUTO VRB02KT M17/M19 A2959=

*** REMARK        : Forecast period has ended; this was the last TAF issued
*** REMARQUE : La période de prévision est échue; ceci était le dernier TAF qui a été émis
TAF CYDA 131738Z 1318/1324 00000KT P6SM FEW050 FEW100
RMK NXT FCST WILL BE ISSUED AT 141645Z=
Your time UTC time
Weather data provided by Environment Canada and NAV CANADA